Aviation Digital Data Service (ADDS)

Output produced by METARs form (1227 UTC 25 June 2019)
found at http://www.aviationweather.gov/metar/data/
 
METAR text: OAKB 251150Z 36014KT 9999 FEW100 29/M01 Q1016 NOSIG RMK A3002 BLU BLU
Conditions at: OAKB (KABUL INTL (MIL), AF) observed 1150 UTC 25 June 2019
Temperature: 29.0°C (84°F)
Dewpoint: -1.0°C (30°F) [RH = 14%]
Pressure (altimeter): 30.00 inches Hg (1016.0 mb)
Winds: from the N (360 degrees) at 16 MPH (14 knots; 7.2 m/s)
Visibility: 6 or more miles (10+ km)
Ceiling: at least 12,000 feet AGL
Clouds: few clouds at 10000 feet AGL
Weather: no significant weather observed at this time

METAR text: OAKB 251050Z 01009G19KT 330V080 9999 FEW100 29/M01 Q1016 NOSIG RMK A3003 BLU BLU
Conditions at: OAKB (KABUL INTL (MIL), AF) observed 1050 UTC 25 June 2019
Temperature: 29.0°C (84°F)
Dewpoint: -1.0°C (30°F) [RH = 14%]
Pressure (altimeter): 30.00 inches Hg (1016.0 mb)
Winds: from the N (10 degrees) at 10 MPH (9 knots; 4.6 m/s)
gusting to 22 MPH (19 knots; 9.8 m/s)
Visibility: 6 or more miles (10+ km)
Ceiling: at least 12,000 feet AGL
Clouds: few clouds at 10000 feet AGL
Weather: no significant weather observed at this time

METAR text: OAKB 250950Z 36010KT 320V050 9999 FEW100 29/M01 Q1017 NOSIG RMK A3005 BLU BLU
Conditions at: OAKB (KABUL INTL (MIL), AF) observed 0950 UTC 25 June 2019
Temperature: 29.0°C (84°F)
Dewpoint: -1.0°C (30°F) [RH = 14%]
Pressure (altimeter): 30.03 inches Hg (1017.0 mb)
Winds: from the N (360 degrees) at 12 MPH (10 knots; 5.1 m/s)
Visibility: 6 or more miles (10+ km)
Ceiling: at least 12,000 feet AGL
Clouds: few clouds at 10000 feet AGL
Weather: no significant weather observed at this time

METAR text: OAKB 250850Z 31008KT 9999 FEW100 29/M02 Q1017 NOSIG RMK A3006 BLU BLU
Conditions at: OAKB (KABUL INTL (MIL), AF) observed 0850 UTC 25 June 2019
Temperature: 29.0°C (84°F)
Dewpoint: -2.0°C (28°F) [RH = 13%]
Pressure (altimeter): 30.03 inches Hg (1017.0 mb)
Winds: from the NW (310 degrees) at 9 MPH (8 knots; 4.1 m/s)
Visibility: 6 or more miles (10+ km)
Ceiling: at least 12,000 feet AGL
Clouds: few clouds at 10000 feet AGL
Weather: no significant weather observed at this time

METAR text: OAKB 250750Z 35010KT 9999 FEW100 29/M03 Q1018 NOSIG RMK A3007 BLU BLU
Conditions at: OAKB (KABUL INTL (MIL), AF) observed 0750 UTC 25 June 2019
Temperature: 29.0°C (84°F)
Dewpoint: -3.0°C (27°F) [RH = 12%]
Pressure (altimeter): 30.06 inches Hg (1018.0 mb)
Winds: from the N (350 degrees) at 12 MPH (10 knots; 5.1 m/s)
Visibility: 6 or more miles (10+ km)
Ceiling: at least 12,000 feet AGL
Clouds: few clouds at 10000 feet AGL
Weather: no significant weather observed at this time

METAR text: OAKB 250650Z 09005KT 9999 FEW100 FEW210 27/M03 Q1019 NOSIG RMK A3009 BLU BLU
Conditions at: OAKB (KABUL INTL (MIL), AF) observed 0650 UTC 25 June 2019
Temperature: 27.0°C (81°F)
Dewpoint: -3.0°C (27°F) [RH = 14%]
Pressure (altimeter): 30.09 inches Hg (1019.0 mb)
Winds: from the E (90 degrees) at 6 MPH (5 knots; 2.6 m/s)
Visibility: 6 or more miles (10+ km)
Ceiling: at least 12,000 feet AGL
Clouds: few clouds at 10000 feet AGL
few clouds at 21000 feet AGL
Weather: no significant weather observed at this time

METAR text: OAKB 250550Z 29005KT CAVOK 28/M03 Q1019 NOSIG RMK A3010 BLU BLU
Conditions at: OAKB (KABUL INTL (MIL), AF) observed 0550 UTC 25 June 2019
Temperature: 28.0°C (82°F)
Dewpoint: -3.0°C (27°F) [RH = 13%]
Pressure (altimeter): 30.09 inches Hg (1019.0 mb)
Winds: from the WNW (290 degrees) at 6 MPH (5 knots; 2.6 m/s)
Visibility: 6 or more miles (10+ km)
Ceiling: ceiling and visibility are OK
Clouds: unknown
Weather: no significant weather observed at this time

METAR text: OAKB 250450Z VRB03KT CAVOK 26/M03 Q1019 NOSIG RMK A3011 BLU BLU
Conditions at: OAKB (KABUL INTL (MIL), AF) observed 0450 UTC 25 June 2019
Temperature: 26.0°C (79°F)
Dewpoint: -3.0°C (27°F) [RH = 15%]
Pressure (altimeter): 30.09 inches Hg (1019.0 mb)
Winds: variable direction winds at 3 MPH (3 knots; 1.5 m/s)
Visibility: 6 or more miles (10+ km)
Ceiling: ceiling and visibility are OK
Clouds: unknown
Weather: no significant weather observed at this time

METAR text: OAKB 250350Z 02004KT CAVOK 24/M03 Q1019 NOSIG RMK A3011 BLU BLU
Conditions at: OAKB (KABUL INTL (MIL), AF) observed 0350 UTC 25 June 2019
Temperature: 24.0°C (75°F)
Dewpoint: -3.0°C (27°F) [RH = 16%]
Pressure (altimeter): 30.09 inches Hg (1019.0 mb)
Winds: from the NNE (20 degrees) at 5 MPH (4 knots; 2.1 m/s)
Visibility: 6 or more miles (10+ km)
Ceiling: ceiling and visibility are OK
Clouds: unknown
Weather: no significant weather observed at this time

METAR text: OAKB 250250Z 02006KT 350V070 CAVOK 22/M02 Q1019 NOSIG RMK A3011 BLU BLU
Conditions at: OAKB (KABUL INTL (MIL), AF) observed 0250 UTC 25 June 2019
Temperature: 22.0°C (72°F)
Dewpoint: -2.0°C (28°F) [RH = 20%]
Pressure (altimeter): 30.09 inches Hg (1019.0 mb)
Winds: from the NNE (20 degrees) at 7 MPH (6 knots; 3.1 m/s)
Visibility: 6 or more miles (10+ km)
Ceiling: ceiling and visibility are OK
Clouds: unknown
Weather: no significant weather observed at this time

METAR text: OAKB 250150Z VRB02KT CAVOK 21/M00 Q1019 NOSIG RMK A3011 BLU BLU
Conditions at: OAKB (KABUL INTL (MIL), AF) observed 0150 UTC 25 June 2019
Temperature: 21.0°C (70°F)
Dewpoint: 0.0°C (32°F) [RH = 25%]
Pressure (altimeter): 30.09 inches Hg (1019.0 mb)
Winds: variable direction winds at 2 MPH (2 knots; 1.0 m/s)
Visibility: 6 or more miles (10+ km)
Ceiling: ceiling and visibility are OK
Clouds: unknown
Weather: no significant weather observed at this time

METAR text: OAKB 250050Z 30003KT CAVOK 19/M01 Q1019 NOSIG RMK A3010 BLU BLU
Conditions at: OAKB (KABUL INTL (MIL), AF) observed 0050 UTC 25 June 2019
Temperature: 19.0°C (66°F)
Dewpoint: -1.0°C (30°F) [RH = 26%]
Pressure (altimeter): 30.09 inches Hg (1019.0 mb)
Winds: from the WNW (300 degrees) at 3 MPH (3 knots; 1.5 m/s)
Visibility: 6 or more miles (10+ km)
Ceiling: ceiling and visibility are OK
Clouds: unknown
Weather: no significant weather observed at this time

METAR text: OAKB 242350Z 34007KT CAVOK 19/M02 Q1019 NOSIG RMK A3009 BLU BLU
Conditions at: OAKB (KABUL INTL (MIL), AF) observed 2350 UTC 24 June 2019
Temperature: 19.0°C (66°F)
Dewpoint: -2.0°C (28°F) [RH = 24%]
Pressure (altimeter): 30.09 inches Hg (1019.0 mb)
Winds: from the NNW (340 degrees) at 8 MPH (7 knots; 3.6 m/s)
Visibility: 6 or more miles (10+ km)
Ceiling: ceiling and visibility are OK
Clouds: unknown
Weather: no significant weather observed at this time

METAR text: OAKB 242250Z 31005KT CAVOK 19/M02 Q1018 NOSIG RMK A3009 BLU BLU
Conditions at: OAKB (KABUL INTL (MIL), AF) observed 2250 UTC 24 June 2019
Temperature: 19.0°C (66°F)
Dewpoint: -2.0°C (28°F) [RH = 24%]
Pressure (altimeter): 30.06 inches Hg (1018.0 mb)
Winds: from the NW (310 degrees) at 6 MPH (5 knots; 2.6 m/s)
Visibility: 6 or more miles (10+ km)
Ceiling: ceiling and visibility are OK
Clouds: unknown
Weather: no significant weather observed at this time

METAR text: OAKB 242150Z 36010KT CAVOK 21/M03 Q1018 NOSIG RMK A3008 BLU BLU
Conditions at: OAKB (KABUL INTL (MIL), AF) observed 2150 UTC 24 June 2019
Temperature: 21.0°C (70°F)
Dewpoint: -3.0°C (27°F) [RH = 20%]
Pressure (altimeter): 30.06 inches Hg (1018.0 mb)
Winds: from the N (360 degrees) at 12 MPH (10 knots; 5.1 m/s)
Visibility: 6 or more miles (10+ km)
Ceiling: ceiling and visibility are OK
Clouds: unknown
Weather: no significant weather observed at this time

METAR text: OAKB 242050Z 36012KT CAVOK 22/M03 Q1018 NOSIG RMK A3009 BLU BLU
Conditions at: OAKB (KABUL INTL (MIL), AF) observed 2050 UTC 24 June 2019
Temperature: 22.0°C (72°F)
Dewpoint: -3.0°C (27°F) [RH = 19%]
Pressure (altimeter): 30.06 inches Hg (1018.0 mb)
Winds: from the N (360 degrees) at 14 MPH (12 knots; 6.2 m/s)
Visibility: 6 or more miles (10+ km)
Ceiling: ceiling and visibility are OK
Clouds: unknown
Weather: no significant weather observed at this time

METAR text: OAKB 241950Z 35007KT 320V030 CAVOK 21/M03 Q1019 NOSIG RMK A3010 BLU BLU
Conditions at: OAKB (KABUL INTL (MIL), AF) observed 1950 UTC 24 June 2019
Temperature: 21.0°C (70°F)
Dewpoint: -3.0°C (27°F) [RH = 20%]
Pressure (altimeter): 30.09 inches Hg (1019.0 mb)
Winds: from the N (350 degrees) at 8 MPH (7 knots; 3.6 m/s)
Visibility: 6 or more miles (10+ km)
Ceiling: ceiling and visibility are OK
Clouds: unknown
Weather: no significant weather observed at this time

METAR text: OAKB 241750Z 03007G17KT 330V110 CAVOK 23/M04 Q1018 NOSIG RMK A3007 BLU BLU
Conditions at: OAKB (KABUL INTL (MIL), AF) observed 1750 UTC 24 June 2019
Temperature: 23.0°C (73°F)
Dewpoint: -4.0°C (25°F) [RH = 16%]
Pressure (altimeter): 30.06 inches Hg (1018.0 mb)
Winds: from the NNE (30 degrees) at 8 MPH (7 knots; 3.6 m/s)
gusting to 20 MPH (17 knots; 8.7 m/s)
Visibility: 6 or more miles (10+ km)
Ceiling: ceiling and visibility are OK
Clouds: unknown
Weather: no significant weather observed at this time

METAR text: OAKB 241650Z 03014G24KT 350V050 CAVOK 24/M04 Q1017 NOSIG RMK A3004 BLU BLU
Conditions at: OAKB (KABUL INTL (MIL), AF) observed 1650 UTC 24 June 2019
Temperature: 24.0°C (75°F)
Dewpoint: -4.0°C (25°F) [RH = 15%]
Pressure (altimeter): 30.03 inches Hg (1017.0 mb)
Winds: from the NNE (30 degrees) at 16 MPH (14 knots; 7.2 m/s)
gusting to 28 MPH (24 knots; 12.3 m/s)
Visibility: 6 or more miles (10+ km)
Ceiling: ceiling and visibility are OK
Clouds: unknown
Weather: no significant weather observed at this time

METAR text: OAKB 241550Z 04013G27KT 360V090 CAVOK 24/M04 Q1016 NOSIG RMK A3002 BLU BLU
Conditions at: OAKB (KABUL INTL (MIL), AF) observed 1550 UTC 24 June 2019
Temperature: 24.0°C (75°F)
Dewpoint: -4.0°C (25°F) [RH = 15%]
Pressure (altimeter): 30.00 inches Hg (1016.0 mb)
Winds: from the NE (40 degrees) at 15 MPH (13 knots; 6.7 m/s)
gusting to 31 MPH (27 knots; 13.9 m/s)
Visibility: 6 or more miles (10+ km)
Ceiling: ceiling and visibility are OK
Clouds: unknown
Weather: no significant weather observed at this time

METAR text: OAKB 241450Z 01015G31KT 340V060 CAVOK 26/M05 Q1015 NOSIG RMK A3000 BLU BLU
Conditions at: OAKB (KABUL INTL (MIL), AF) observed 1450 UTC 24 June 2019
Temperature: 26.0°C (79°F)
Dewpoint: -5.0°C (23°F) [RH = 13%]
Pressure (altimeter): 29.97 inches Hg (1015.0 mb)
Winds: from the N (10 degrees) at 17 MPH (15 knots; 7.7 m/s)
gusting to 36 MPH (31 knots; 15.9 m/s)
Visibility: 6 or more miles (10+ km)
Ceiling: ceiling and visibility are OK
Clouds: unknown
Weather: no significant weather observed at this time

METAR text: OAKB 241350Z 01012G23KT 9000 FEW120 FEW210 27/M04 Q1015 NOSIG RMK A2997 BLU BLU
Conditions at: OAKB (KABUL INTL (MIL), AF) observed 1350 UTC 24 June 2019
Temperature: 27.0°C (81°F)
Dewpoint: -4.0°C (25°F) [RH = 13%]
Pressure (altimeter): 29.97 inches Hg (1015.0 mb)
Winds: from the N (10 degrees) at 14 MPH (12 knots; 6.2 m/s)
gusting to 26 MPH (23 knots; 11.8 m/s)
Visibility: 6 miles ( 9 km)
Ceiling: at least 12,000 feet AGL
Clouds: few clouds at 12000 feet AGL
few clouds at 21000 feet AGL
Weather: no significant weather observed at this time

METAR text: OAKB 241250Z 36011KT 9999 FEW120 SCT210 29/M07 Q1014 NOSIG RMK A2996 BLU BLU
Conditions at: OAKB (KABUL INTL (MIL), AF) observed 1250 UTC 24 June 2019
Temperature: 29.0°C (84°F)
Dewpoint: -7.0°C (19°F) [RH =  9%]
Pressure (altimeter): 29.94 inches Hg (1014.0 mb)
Winds: from the N (360 degrees) at 13 MPH (11 knots; 5.7 m/s)
Visibility: 6 or more miles (10+ km)
Ceiling: at least 12,000 feet AGL
Clouds: few clouds at 12000 feet AGL
scattered clouds at 21000 feet AGL
Weather: no significant weather observed at this time

METAR text: OAKB 241150Z 06005KT 9999 FEW120 FEW210 28/M06 Q1015 NOSIG RMK A2998 BLU BLU
Conditions at: OAKB (KABUL INTL (MIL), AF) observed 1150 UTC 24 June 2019
Temperature: 28.0°C (82°F)
Dewpoint: -6.0°C (21°F) [RH = 10%]
Pressure (altimeter): 29.97 inches Hg (1015.0 mb)
Winds: from the ENE (60 degrees) at 6 MPH (5 knots; 2.6 m/s)
Visibility: 6 or more miles (10+ km)
Ceiling: at least 12,000 feet AGL
Clouds: few clouds at 12000 feet AGL
few clouds at 21000 feet AGL
Weather: no significant weather observed at this time

METAR text: OAKB 241050Z 35009KT 9999 FEW120 FEW210 30/M05 Q1015 NOSIG RMK A2999 BLU BLU
Conditions at: OAKB (KABUL INTL (MIL), AF) observed 1050 UTC 24 June 2019
Temperature: 30.0°C (86°F)
Dewpoint: -5.0°C (23°F) [RH = 10%]
Pressure (altimeter): 29.97 inches Hg (1015.0 mb)
Winds: from the N (350 degrees) at 10 MPH (9 knots; 4.6 m/s)
Visibility: 6 or more miles (10+ km)
Ceiling: at least 12,000 feet AGL
Clouds: few clouds at 12000 feet AGL
few clouds at 21000 feet AGL
Weather: no significant weather observed at this time

METAR text: OAKB 240950Z 35010KT 9999 FEW120 FEW210 29/M07 Q1016 NOSIG RMK A3001 BLU BLU
Conditions at: OAKB (KABUL INTL (MIL), AF) observed 0950 UTC 24 June 2019
Temperature: 29.0°C (84°F)
Dewpoint: -7.0°C (19°F) [RH =  9%]
Pressure (altimeter): 30.00 inches Hg (1016.0 mb)
Winds: from the N (350 degrees) at 12 MPH (10 knots; 5.1 m/s)
Visibility: 6 or more miles (10+ km)
Ceiling: at least 12,000 feet AGL
Clouds: few clouds at 12000 feet AGL
few clouds at 21000 feet AGL
Weather: no significant weather observed at this time

METAR text: OAKB 240850Z 35008KT 9999 FEW120 29/M10 Q1017 NOSIG RMK A3004 BLU BLU
Conditions at: OAKB (KABUL INTL (MIL), AF) observed 0850 UTC 24 June 2019
Temperature: 29.0°C (84°F)
Dewpoint: -10.0°C (14°F) [RH =  7%]
Pressure (altimeter): 30.03 inches Hg (1017.0 mb)
Winds: from the N (350 degrees) at 9 MPH (8 knots; 4.1 m/s)
Visibility: 6 or more miles (10+ km)
Ceiling: at least 12,000 feet AGL
Clouds: few clouds at 12000 feet AGL
Weather: no significant weather observed at this time

METAR text: OAKB 240750Z 35009KT 9999 SCT120 28/M09 Q1017 NOSIG RMK A3006 BLU BLU
Conditions at: OAKB (KABUL INTL (MIL), AF) observed 0750 UTC 24 June 2019
Temperature: 28.0°C (82°F)
Dewpoint: -9.0°C (16°F) [RH =  8%]
Pressure (altimeter): 30.03 inches Hg (1017.0 mb)
Winds: from the N (350 degrees) at 10 MPH (9 knots; 4.6 m/s)
Visibility: 6 or more miles (10+ km)
Ceiling: at least 12,000 feet AGL
Clouds: scattered clouds at 12000 feet AGL
Weather: no significant weather observed at this time

METAR text: OAKB 240650Z 36010KT 9999 SCT120 28/M09 Q1018 NOSIG RMK A3008 BLU BLU
Conditions at: OAKB (KABUL INTL (MIL), AF) observed 0650 UTC 24 June 2019
Temperature: 28.0°C (82°F)
Dewpoint: -9.0°C (16°F) [RH =  8%]
Pressure (altimeter): 30.06 inches Hg (1018.0 mb)
Winds: from the N (360 degrees) at 12 MPH (10 knots; 5.1 m/s)
Visibility: 6 or more miles (10+ km)
Ceiling: at least 12,000 feet AGL
Clouds: scattered clouds at 12000 feet AGL
Weather: no significant weather observed at this time

METAR text: OAKB 240550Z 36006KT 9999 BKN120 27/M08 Q1019 NOSIG RMK A3011 BLU BLU
Conditions at: OAKB (KABUL INTL (MIL), AF) observed 0550 UTC 24 June 2019
Temperature: 27.0°C (81°F)
Dewpoint: -8.0°C (18°F) [RH =  9%]
Pressure (altimeter): 30.09 inches Hg (1019.0 mb)
Winds: from the N (360 degrees) at 7 MPH (6 knots; 3.1 m/s)
Visibility: 6 or more miles (10+ km)
Ceiling: 12000 feet AGL
Clouds: broken clouds at 12000 feet AGL
Weather: no significant weather observed at this time

METAR text: OAKB 240450Z 35008KT 9999 SCT120 BKN150 26/M05 Q1019 NOSIG RMK A3009 BLU BLU
Conditions at: OAKB (KABUL INTL (MIL), AF) observed 0450 UTC 24 June 2019
Temperature: 26.0°C (79°F)
Dewpoint: -5.0°C (23°F) [RH = 13%]
Pressure (altimeter): 30.09 inches Hg (1019.0 mb)
Winds: from the N (350 degrees) at 9 MPH (8 knots; 4.1 m/s)
Visibility: 6 or more miles (10+ km)
Ceiling: 15000 feet AGL
Clouds: scattered clouds at 12000 feet AGL
broken clouds at 15000 feet AGL
Weather: no significant weather observed at this time

METAR text: OAKB 240350Z 03007KT 9999 BKN120 24/M03 Q1019 NOSIG RMK A3009 BLU BLU
Conditions at: OAKB (KABUL INTL (MIL), AF) observed 0350 UTC 24 June 2019
Temperature: 24.0°C (75°F)
Dewpoint: -3.0°C (27°F) [RH = 16%]
Pressure (altimeter): 30.09 inches Hg (1019.0 mb)
Winds: from the NNE (30 degrees) at 8 MPH (7 knots; 3.6 m/s)
Visibility: 6 or more miles (10+ km)
Ceiling: 12000 feet AGL
Clouds: broken clouds at 12000 feet AGL
Weather: no significant weather observed at this time

METAR text: OAKB 240250Z 01008KT 9999 BKN120 22/M04 Q1018 NOSIG RMK A3009 BLU BLU
Conditions at: OAKB (KABUL INTL (MIL), AF) observed 0250 UTC 24 June 2019
Temperature: 22.0°C (72°F)
Dewpoint: -4.0°C (25°F) [RH = 17%]
Pressure (altimeter): 30.06 inches Hg (1018.0 mb)
Winds: from the N (10 degrees) at 9 MPH (8 knots; 4.1 m/s)
Visibility: 6 or more miles (10+ km)
Ceiling: 12000 feet AGL
Clouds: broken clouds at 12000 feet AGL
Weather: no significant weather observed at this time

METAR text: OAKB 240150Z 29003KT 9999 BKN120 22/M03 Q1018 NOSIG RMK A3007 BLU BLU
Conditions at: OAKB (KABUL INTL (MIL), AF) observed 0150 UTC 24 June 2019
Temperature: 22.0°C (72°F)
Dewpoint: -3.0°C (27°F) [RH = 19%]
Pressure (altimeter): 30.06 inches Hg (1018.0 mb)
Winds: from the WNW (290 degrees) at 3 MPH (3 knots; 1.5 m/s)
Visibility: 6 or more miles (10+ km)
Ceiling: 12000 feet AGL
Clouds: broken clouds at 12000 feet AGL
Weather: no significant weather observed at this time

METAR text: OAKB 240050Z 31006KT 9999 FEW100 BKN120 21/M03 Q1017 NOSIG RMK A3005 BLU BLU
Conditions at: OAKB (KABUL INTL (MIL), AF) observed 0050 UTC 24 June 2019
Temperature: 21.0°C (70°F)
Dewpoint: -3.0°C (27°F) [RH = 20%]
Pressure (altimeter): 30.03 inches Hg (1017.0 mb)
Winds: from the NW (310 degrees) at 7 MPH (6 knots; 3.1 m/s)
Visibility: 6 or more miles (10+ km)
Ceiling: 12000 feet AGL
Clouds: few clouds at 10000 feet AGL
broken clouds at 12000 feet AGL
Weather: no significant weather observed at this time

Forecast for: OAKB (KABUL INTL (MIL), AF)
Text: TAF OAKB 251105Z 2512/2612 35015KT 9999 FEW100
Forecast period: 1200 to 1600 UTC 25 June 2019
Forecast type: FROM: standard forecast or significant change
Winds: from the N (350 degrees) at 17 MPH (15 knots; 7.7 m/s)
Visibility: 6 or more miles 10+ km)
Ceiling: at least 12,000 feet AGL
Clouds: few clouds at 10000 feet AGL
Weather: no significant weather forecast for this period
Text: TEMPO 2512/2516 01018G30KT
Forecast period: 1200 to 1600 UTC 25 June 2019
Forecast type: TEMPORARY: The following changes expected for less than half the time period
Winds: from the N (10 degrees) at 21 MPH (18 knots; 9.3 m/s)
gusting to 34 MPH (30 knots; 15.4 m/s)
Visibility: missing
Ceiling: unknown
Clouds: missing
Weather: no significant weather forecast for this period
Text: BECMG 2516/2518 CAVOK
Forecast period: 1600 to 2000 UTC 25 June 2019
Forecast type: BECOMING: Conditions expected to become as follows by 1800 UTC 25 June 2019
Winds: from the N (350 degrees) at 17 MPH (15 knots; 7.7 m/s)
Visibility: 6 or more miles 10+ km)
Ceiling: unknown
Clouds: missing
Weather: NSW  (no significant weather)
Text: BECMG 2520/2521 VRB02KT
Forecast period: 2000 UTC 25 June 2019 to 0600 UTC 26 June 2019
Forecast type: BECOMING: Conditions expected to become as follows by 2100 UTC 25 June 2019
Winds: variable direction winds at 2 MPH (2 knots; 1.0 m/s)
Visibility: 6 or more miles 10+ km)
Ceiling: unknown
Clouds: missing
Weather: NSW  (no significant weather)
Text: BECMG 2606/2608 35012KT FEW100
Forecast period: 0600 to 0900 UTC 26 June 2019
Forecast type: BECOMING: Conditions expected to become as follows by 0800 UTC 26 June 2019
Winds: from the N (350 degrees) at 14 MPH (12 knots; 6.2 m/s)
Visibility: 6 or more miles 10+ km)
Ceiling: at least 12,000 feet AGL
Clouds: few clouds at 10000 feet AGL
Weather: NSW  (no significant weather)
Text: BECMG 2609/2910 36015G25KT
Forecast period: 0900 to 1200 UTC 26 June 2019
Forecast type: BECOMING: Conditions expected to become as follows by 1000 UTC 29 June 2019
Winds: from the N (360 degrees) at 17 MPH (15 knots; 7.7 m/s)
gusting to 29 MPH (25 knots; 12.9 m/s)
Visibility: 6 or more miles 10+ km)
Ceiling: at least 12,000 feet AGL
Clouds: few clouds at 10000 feet AGL
Weather: NSW  (no significant weather)